Time;durP1;ratioP1;P1;durP2;ratioP2;P2;SDS_P1;SDS_P2;PMS_P1;PMS_P2;Temp;Humidity;BMP_temperature;BMP_pressure;BME280_temperature;BME280_humidity;BME280_pressure;Samples;Min_cycle;Max_cycle;Signal;HPM_P1;HPM_P2
2022/06/24 00:02:02;;;;;;;6.30;4.00;;;;;;;16.56;81.44;98509.08;25048;1318;3026639;-68
2022/06/24 00:04:31;;;;;;;5.90;4.40;;;;;;;16.36;81.80;98517.10;25105;1318;3052690;-71
2022/06/24 00:07:00;;;;;;;5.30;4.10;;;;;;;16.22;82.48;98520.58;25068;1318;3026521;-69
2022/06/24 00:09:30;;;;;;;5.60;3.20;;;;;;;16.05;83.62;98521.05;25101;1317;3026302;-65
2022/06/24 00:12:23;;;;;;;4.70;3.50;;;;;;;16.43;82.75;98528.27;25045;1318;3026634;-71
2022/06/24 00:14:58;;;;;;;4.50;3.50;;;;;;;16.67;81.19;98523.40;25019;1316;3054133;-65
2022/06/24 00:17:31;;;;;;;5.00;3.90;;;;;;;16.66;80.91;98523.83;25030;1316;3071387;-68
2022/06/24 00:20:03;;;;;;;5.60;4.60;;;;;;;16.36;81.94;98531.39;25058;1318;3049773;-67
2022/06/24 00:22:44;;;;;;;6.10;3.60;;;;;;;16.21;82.93;98532.66;25089;1317;3026910;-67
2022/06/24 00:25:18;;;;;;;4.20;3.80;;;;;;;16.54;81.96;98527.98;25047;1318;3054919;-67
2022/06/24 00:28:08;;;;;;;7.10;4.40;;;;;;;16.70;81.04;98524.51;25043;1318;3058642;-66
2022/06/24 00:30:39;;;;;;;6.90;4.30;;;;;;;16.48;81.66;98519.23;25024;1317;3051962;-66
2022/06/24 00:33:16;;;;;;;8.00;4.60;;;;;;;16.37;82.08;98528.48;25114;1318;3028326;-66
2022/06/24 00:35:50;;;;;;;6.20;3.30;;;;;;;16.22;83.22;98532.63;25123;1318;3050738;-64
2022/06/24 00:38:27;;;;;;;8.60;4.00;;;;;;;16.65;81.87;98532.90;25050;1317;3071044;-67
2022/06/24 00:41:17;;;;;;;6.10;4.30;;;;;;;16.84;80.72;98534.23;25075;1318;3051234;-64
2022/06/24 00:43:46;;;;;;;5.30;4.70;;;;;;;16.69;81.18;98533.09;25060;1316;3055389;-66
2022/06/24 00:46:24;;;;;;;6.70;3.50;;;;;;;16.49;82.10;98533.42;25117;1318;3026797;-70
2022/06/24 00:48:54;;;;;;;5.60;3.20;;;;;;;16.39;82.94;98530.58;25013;1318;3058623;-64
2022/06/24 00:51:31;;;;;;;3.90;3.40;;;;;;;16.73;82.08;98530.40;25064;1318;3026451;-65
2022/06/24 00:54:07;;;;;;;6.20;3.90;;;;;;;16.91;81.34;98526.95;25117;1317;3053379;-68
2022/06/24 00:56:36;;;;;;;10.40;4.70;;;;;;;16.89;80.95;98527.85;25076;1317;3051906;-67
2022/06/24 00:59:07;;;;;;;5.30;4.00;;;;;;;16.66;82.16;98527.20;25043;1318;3026693;-64
2022/06/24 01:01:37;;;;;;;7.10;2.90;;;;;;;16.57;82.92;98525.63;25083;1318;3026450;-66
2022/06/24 01:04:08;;;;;;;6.90;3.60;;;;;;;17.01;81.82;98523.13;25080;1319;3027526;-67
2022/06/24 01:06:39;;;;;;;6.90;4.40;;;;;;;17.35;80.13;98519.48;25020;1318;3026684;-66
2022/06/24 01:09:08;;;;;;;7.10;5.30;;;;;;;17.27;80.06;98521.88;25054;1317;3026537;-66
2022/06/24 01:11:42;;;;;;;7.30;5.40;;;;;;;17.07;80.98;98521.29;25029;1317;3026920;-65
2022/06/24 01:14:11;;;;;;;6.90;4.30;;;;;;;16.91;81.68;98514.42;25017;1316;3051800;-69
2022/06/24 01:16:40;;;;;;;10.20;4.60;;;;;;;17.11;81.49;98511.55;25063;1316;3027624;-69
2022/06/24 01:19:13;;;;;;;7.80;4.90;;;;;;;17.22;80.89;98510.85;25049;1317;3027347;-69
2022/06/24 01:21:48;;;;;;;6.80;5.30;;;;;;;17.18;81.20;98508.27;25118;1316;3027261;-64
2022/06/24 01:24:22;;;;;;;8.40;5.00;;;;;;;17.01;81.65;98507.02;25034;1317;3056065;-68
2022/06/24 01:26:54;;;;;;;8.40;3.90;;;;;;;16.89;82.42;98508.92;24983;1317;3026867;-67
2022/06/24 01:29:25;;;;;;;8.00;5.00;;;;;;;17.24;81.91;98505.77;25042;1318;3029018;-70
2022/06/24 01:31:54;;;;;;;7.40;4.90;;;;;;;17.42;80.60;98505.79;25041;1318;3027537;-62
2022/06/24 01:34:23;;;;;;;9.40;5.10;;;;;;;17.37;80.97;98514.98;25002;1318;3026098;-72
2022/06/24 01:36:53;;;;;;;8.80;5.60;;;;;;;17.14;81.83;98525.00;25024;1318;3028756;-68
2022/06/24 01:39:22;;;;;;;5.70;3.90;;;;;;;17.10;82.23;98526.77;25005;1318;3028348;-65
2022/06/24 01:41:51;;;;;;;8.80;4.70;;;;;;;17.71;80.22;98528.11;25084;1318;3051471;-65
2022/06/24 01:44:21;;;;;;;5.80;4.60;;;;;;;18.20;78.27;98535.31;25099;1318;3026308;-66
2022/06/24 01:46:52;;;;;;;7.50;4.40;;;;;;;18.19;77.34;98533.84;25073;1318;3027137;-65
2022/06/24 01:49:21;;;;;;;7.20;5.10;;;;;;;18.10;77.48;98534.87;25042;1318;3026520;-68
2022/06/24 01:51:51;;;;;;;9.50;5.20;;;;;;;17.90;77.86;98532.35;25073;1318;3058180;-66
2022/06/24 01:54:20;;;;;;;4.80;4.10;;;;;;;17.79;78.19;98534.14;25063;1318;3026875;-67
2022/06/24 01:56:49;;;;;;;6.60;4.40;;;;;;;18.27;77.07;98533.55;25019;1318;3026480;-68
2022/06/24 01:59:18;;;;;;;7.10;5.20;;;;;;;18.71;75.94;98528.28;25055;1318;3056597;-68
2022/06/24 02:01:47;;;;;;;8.90;5.10;;;;;;;18.74;75.25;98522.82;25018;1318;3028098;-65
2022/06/24 02:04:17;;;;;;;6.40;5.20;;;;;;;18.51;75.75;98534.88;25016;1318;3053066;-64
2022/06/24 02:07:11;;;;;;;8.30;5.70;;;;;;;18.33;75.98;98531.03;25022;1318;3058737;-63
2022/06/24 02:15:15;;;;;;;11.60;7.20;;;;;;;19.02;74.19;98521.77;25008;1318;3058688;-66
2022/06/24 02:17:44;;;;;;;10.10;7.60;;;;;;;18.98;73.86;98522.59;24994;1316;3026693;-67
2022/06/24 02:20:14;;;;;;;15.80;8.50;;;;;;;18.78;74.01;98531.60;25071;1318;3054926;-66
2022/06/24 02:22:43;;;;;;;24.00;13.20;;;;;;;18.50;74.60;98538.95;25030;1318;3026615;-68
2022/06/24 02:25:12;;;;;;;19.60;9.60;;;;;;;18.18;76.13;98540.02;25100;1318;3054575;-68
2022/06/24 02:27:41;;;;;;;16.80;10.70;;;;;;;18.58;75.63;98533.58;25075;1318;3027131;-65
2022/06/24 02:30:11;;;;;;;16.10;9.10;;;;;;;18.79;74.85;98531.70;25075;1316;3026480;-68
2022/06/24 02:32:40;;;;;;;21.70;12.90;;;;;;;18.79;74.16;98531.67;25071;1318;3052907;-66
2022/06/24 02:35:09;;;;;;;26.70;16.30;;;;;;;18.63;74.67;98542.30;25049;1318;3026907;-64
2022/06/24 02:37:38;;;;;;;32.40;15.80;;;;;;;18.46;75.20;98539.67;24577;1318;3659482;-67
2022/06/24 02:42:57;;;;;;;26.50;14.40;;;;;;;18.30;75.76;98534.11;25021;1318;3071154;-69
2022/06/24 02:45:26;;;;;;;32.90;15.60;;;;;;;18.69;74.52;98535.24;25063;1318;3026299;-63
2022/06/24 02:47:55;;;;;;;28.80;14.80;;;;;;;19.06;73.24;98525.89;25027;1318;3026982;-67
2022/06/24 02:50:24;;;;;;;23.60;14.80;;;;;;;19.08;73.17;98522.35;25044;1318;3071110;-68
2022/06/24 02:52:53;;;;;;;25.40;14.60;;;;;;;18.96;73.35;98518.20;25021;1318;3026556;-64
2022/06/24 02:55:24;;;;;;;29.10;17.30;;;;;;;18.55;74.20;98527.55;25077;1318;3026781;-64
2022/06/24 02:57:53;;;;;;;26.50;15.30;;;;;;;18.36;75.06;98526.80;25024;1318;3027120;-67
2022/06/24 03:00:22;;;;;;;17.30;10.90;;;;;;;18.18;75.74;98526.34;25044;1319;3050623;-68
2022/06/24 03:02:51;;;;;;;18.30;11.30;;;;;;;18.49;74.86;98525.34;25013;1319;3026486;-64
2022/06/24 03:05:20;;;;;;;18.10;11.60;;;;;;;18.89;73.78;98521.02;25063;1318;3067792;-67
2022/06/24 03:07:49;;;;;;;21.20;12.80;;;;;;;18.93;72.77;98517.09;25016;1317;3026847;-68
2022/06/24 03:10:18;;;;;;;17.50;12.50;;;;;;;18.70;73.64;98521.30;25061;1318;3050627;-63
2022/06/24 03:12:47;;;;;;;17.10;11.70;;;;;;;18.26;75.38;98520.27;24987;1316;3026650;-66
2022/06/24 03:15:17;;;;;;;16.70;10.90;;;;;;;18.10;75.33;98524.90;25053;1318;3055343;-68
2022/06/24 03:17:46;;;;;;;13.30;8.50;;;;;;;17.85;76.93;98526.99;24984;1318;3027176;-67
2022/06/24 03:20:16;;;;;;;13.90;9.80;;;;;;;18.18;75.76;98530.95;24978;1318;3026710;-66
2022/06/24 03:22:44;;;;;;;16.70;10.50;;;;;;;18.18;75.36;98530.77;24981;1318;3052333;-67
2022/06/24 03:25:13;;;;;;;15.70;11.50;;;;;;;18.08;75.93;98533.50;25043;1318;3026923;-66
2022/06/24 03:27:43;;;;;;;19.70;10.90;;;;;;;17.97;76.25;98540.45;25017;1319;3050775;-66
2022/06/24 03:30:12;;;;;;;16.50;9.40;;;;;;;17.63;77.62;98546.64;25038;1317;3026619;-65
2022/06/24 03:32:41;;;;;;;10.40;7.50;;;;;;;17.55;78.12;98551.73;25010;1318;3058813;-67
2022/06/24 03:35:11;;;;;;;14.20;9.00;;;;;;;18.04;76.75;98546.66;24990;1318;3026419;-68
2022/06/24 03:37:40;;;;;;;18.20;9.50;;;;;;;18.38;75.17;98541.02;25039;1318;3026619;-64
2022/06/24 03:40:10;;;;;;;15.00;9.70;;;;;;;18.29;75.13;98540.79;24992;1318;3057694;-64
2022/06/24 03:42:39;;;;;;;17.00;9.90;;;;;;;18.11;75.34;98543.95;25056;1318;3026721;-64
2022/06/24 03:45:09;;;;;;;15.20;10.20;;;;;;;17.93;75.77;98546.70;25047;1318;3026405;-68
2022/06/24 03:47:38;;;;;;;10.50;7.20;;;;;;;17.88;75.70;98552.56;25108;1318;3055512;-64
2022/06/24 03:50:08;;;;;;;13.80;7.50;;;;;;;18.27;74.75;98554.79;25008;1318;3026437;-66
2022/06/24 03:52:37;;;;;;;13.60;8.50;;;;;;;18.76;73.16;98555.70;24994;1317;3052582;-68
2022/06/24 03:55:07;;;;;;;12.70;8.70;;;;;;;18.91;72.36;98550.92;25098;1317;3026801;-63
2022/06/24 03:57:37;;;;;;;16.00;9.30;;;;;;;18.78;72.30;98548.47;25059;1318;3027196;-65
2022/06/24 04:00:07;;;;;;;15.00;8.90;;;;;;;18.62;72.64;98554.95;25050;1318;3026604;-63
2022/06/24 04:02:40;;;;;;;18.00;9.40;;;;;;;18.53;72.77;98556.85;25048;1318;3054626;-64
2022/06/24 04:05:10;;;;;;;10.10;6.90;;;;;;;18.50;73.30;98557.36;25037;1318;3027996;-63
2022/06/24 04:07:41;;;;;;;10.80;7.00;;;;;;;18.94;71.94;98554.71;25047;1318;3054578;-65
2022/06/24 04:10:10;;;;;;;10.40;8.00;;;;;;;19.50;69.75;98551.16;25036;1318;3026737;-64
2022/06/24 04:12:42;;;;;;;11.80;8.90;;;;;;;19.55;69.11;98552.25;25044;1319;3052121;-64
2022/06/24 04:15:14;;;;;;;15.10;9.10;;;;;;;19.25;70.04;98558.80;25034;1319;3028331;-67
2022/06/24 04:17:44;;;;;;;13.10;8.80;;;;;;;19.08;70.83;98559.45;25036;1318;3059073;-66
2022/06/24 04:20:17;;;;;;;13.90;9.80;;;;;;;18.94;71.28;98557.54;24954;1318;3028727;-65
2022/06/24 04:22:46;;;;;;;13.80;10.10;;;;;;;18.74;71.46;98562.60;25054;1318;3052562;-65
2022/06/24 04:25:16;;;;;;;14.90;9.50;;;;;;;18.73;71.49;98564.60;25010;1318;3026946;-68
2022/06/24 04:27:45;;;;;;;15.20;10.70;;;;;;;19.16;70.69;98561.39;25020;1318;3052158;-65
2022/06/24 04:30:14;;;;;;;24.40;16.20;;;;;;;19.52;68.99;98562.42;25081;1316;3026150;-66
2022/06/24 04:32:43;;;;;;;32.60;18.60;;;;;;;19.31;69.24;98561.25;24994;1318;3057811;-68
2022/06/24 04:35:12;;;;;;;26.20;17.90;;;;;;;19.30;69.33;98559.12;25053;1318;3026645;-65
2022/06/24 04:37:41;;;;;;;27.40;16.80;;;;;;;19.34;69.31;98552.96;25009;1318;3054450;-67
2022/06/24 04:40:12;;;;;;;26.20;16.00;;;;;;;19.13;69.69;98553.59;25086;1318;3026515;-65
2022/06/24 04:42:41;;;;;;;30.40;18.90;;;;;;;18.79;70.98;98563.94;25024;1318;3051787;-67
2022/06/24 04:45:11;;;;;;;17.40;13.00;;;;;;;18.69;71.80;98564.37;25008;1317;3026427;-66
2022/06/24 04:47:40;;;;;;;23.10;13.40;;;;;;;19.39;69.90;98557.92;25039;1319;3027437;-65
2022/06/24 04:50:10;;;;;;;24.30;14.70;;;;;;;19.91;67.80;98558.15;25094;1318;3026311;-67
2022/06/24 04:52:39;;;;;;;21.90;14.50;;;;;;;19.85;67.53;98566.64;25035;1318;3055283;-67
2022/06/24 04:55:08;;;;;;;26.90;16.80;;;;;;;20.00;66.98;98571.60;25084;1318;3026375;-67
2022/06/24 04:57:38;;;;;;;28.60;18.10;;;;;;;19.91;66.98;98579.23;25061;1319;3055015;-64
2022/06/24 05:00:11;;;;;;;33.30;18.60;;;;;;;19.70;67.45;98573.83;25046;1318;3027005;-66
2022/06/24 05:02:41;;;;;;;30.70;18.40;;;;;;;19.61;67.32;98574.79;25068;1318;3026413;-66
2022/06/24 05:05:10;;;;;;;33.90;19.60;;;;;;;19.50;67.60;98575.30;25094;1318;3026978;-64
2022/06/24 05:07:40;;;;;;;34.10;19.60;;;;;;;19.34;68.48;98582.41;25088;1318;3026685;-64
2022/06/24 05:10:09;;;;;;;15.20;9.00;;;;;;;19.21;69.21;98584.34;25036;1318;3026741;-66
2022/06/24 05:12:38;;;;;;;15.60;10.10;;;;;;;19.67;67.91;98588.56;25068;1318;3027851;-66
2022/06/24 05:15:08;;;;;;;17.60;10.50;;;;;;;19.94;66.86;98586.19;25093;1316;3026615;-64
2022/06/24 05:17:37;;;;;;;14.80;10.60;;;;;;;19.83;66.90;98585.32;25092;1318;3054403;-67
2022/06/24 05:20:07;;;;;;;16.00;10.00;;;;;;;19.90;66.86;98585.65;25021;1318;3026373;-64
2022/06/24 05:22:38;;;;;;;15.20;10.10;;;;;;;19.92;66.62;98584.55;25019;1318;3053023;-66
2022/06/24 05:25:07;;;;;;;13.60;11.20;;;;;;;19.86;66.98;98584.08;25138;1318;3026498;-67
2022/06/24 05:27:37;;;;;;;15.00;10.30;;;;;;;19.81;67.01;98583.77;25046;1317;3026412;-67
2022/06/24 05:30:07;;;;;;;14.10;10.80;;;;;;;19.73;67.35;98578.44;25064;1318;3025928;-69
2022/06/24 05:32:36;;;;;;;15.40;9.40;;;;;;;19.58;68.04;98581.94;25097;1317;3049357;-69
2022/06/24 05:35:06;;;;;;;12.40;7.10;;;;;;;19.49;68.78;98583.27;25023;1318;3026507;-67
2022/06/24 05:37:37;;;;;;;11.80;7.00;;;;;;;20.00;67.31;98574.52;25094;1317;3054983;-65
2022/06/24 05:40:08;;;;;;;16.30;8.00;;;;;;;20.49;65.42;98575.21;25104;1317;3027453;-64
2022/06/24 05:42:38;;;;;;;14.30;7.80;;;;;;;20.55;65.21;98577.72;25063;1318;3026632;-64
2022/06/24 05:45:08;;;;;;;13.70;8.20;;;;;;;20.69;64.77;98583.20;25028;1318;3027506;-63
2022/06/24 05:47:38;;;;;;;12.80;8.90;;;;;;;20.74;64.55;98580.27;25063;1318;3050599;-66
2022/06/24 05:50:08;;;;;;;13.20;8.00;;;;;;;20.63;64.86;98587.65;24985;1319;3026715;-66
2022/06/24 05:55:24;;;;;;;13.80;9.30;;;;;;;20.30;66.52;98585.21;25046;1318;3054096;-66
2022/06/24 05:57:53;;;;;;;14.80;10.00;;;;;;;20.32;66.28;98578.70;25119;1318;3028989;-65
2022/06/24 06:00:22;;;;;;;15.40;10.30;;;;;;;20.14;67.04;98586.68;25067;1318;3052756;-67
2022/06/24 06:02:51;;;;;;;14.20;6.80;;;;;;;19.89;68.05;98587.00;25055;1316;3026668;-66
2022/06/24 06:05:21;;;;;;;15.10;8.90;;;;;;;20.24;67.41;98583.02;25017;1318;3049566;-65
2022/06/24 06:07:50;;;;;;;12.30;8.30;;;;;;;20.46;66.82;98581.73;25057;1318;3026911;-63
2022/06/24 06:10:19;;;;;;;16.30;9.70;;;;;;;20.47;66.91;98579.15;25018;1318;3057306;-68
2022/06/24 06:12:48;;;;;;;12.70;9.70;;;;;;;20.20;67.91;98583.47;25063;1318;3026849;-65
2022/06/24 06:15:17;;;;;;;19.60;10.60;;;;;;;20.04;68.58;98586.45;25085;1318;3026520;-67
2022/06/24 06:17:46;;;;;;;18.80;9.60;;;;;;;19.94;69.12;98589.16;25083;1318;3058446;-67
2022/06/24 06:20:16;;;;;;;17.10;10.90;;;;;;;19.85;69.46;98588.48;25062;1318;3026486;-67
2022/06/24 06:22:45;;;;;;;10.20;7.40;;;;;;;19.75;70.35;98585.55;25040;1317;3054565;-65
2022/06/24 06:25:17;;;;;;;11.70;7.90;;;;;;;20.40;68.56;98588.06;25063;1318;3026883;-67
2022/06/24 06:27:46;;;;;;;14.40;8.20;;;;;;;20.79;66.68;98587.86;25091;1318;3052805;-70
2022/06/24 06:30:15;;;;;;;14.50;9.70;;;;;;;20.83;66.06;98601.66;24992;1316;3026728;-65
2022/06/24 06:32:44;;;;;;;13.50;9.60;;;;;;;20.67;66.64;98612.43;25086;1318;3048984;-65
2022/06/24 06:35:13;;;;;;;19.30;10.50;;;;;;;20.32;67.95;98603.30;25026;1318;3026352;-67
2022/06/24 06:37:42;;;;;;;22.30;11.10;;;;;;;19.86;70.78;98599.70;25054;1318;3070385;-64
2022/06/24 06:40:11;;;;;;;16.50;9.90;;;;;;;19.47;72.64;98602.11;25012;1318;3027003;-68
2022/06/24 06:42:41;;;;;;;13.10;7.30;;;;;;;19.44;73.40;98607.26;25057;1318;3052226;-64
2022/06/24 06:45:13;;;;;;;13.40;8.40;;;;;;;20.03;72.08;98608.86;25022;1317;3027122;-64
2022/06/24 06:47:43;;;;;;;15.10;9.20;;;;;;;20.36;70.73;98609.21;25105;1316;3026767;-65
2022/06/24 06:50:12;;;;;;;20.80;8.80;;;;;;;20.52;70.06;98604.66;25063;1316;3026206;-69
2022/06/24 06:52:41;;;;;;;15.70;9.40;;;;;;;20.39;70.38;98604.59;25082;1318;3071243;-65
2022/06/24 06:55:10;;;;;;;12.50;8.70;;;;;;;20.27;70.28;98602.05;25054;1318;3026396;-67
2022/06/24 06:57:41;;;;;;;14.00;9.20;;;;;;;20.02;70.93;98600.20;25064;1316;3053009;-69
2022/06/24 07:00:10;;;;;;;14.40;7.30;;;;;;;20.03;71.44;98603.00;25059;1318;3026844;-69
2022/06/24 07:02:39;;;;;;;11.50;7.40;;;;;;;20.59;70.59;98592.84;25017;1318;3026545;-64
2022/06/24 07:05:08;;;;;;;10.10;7.30;;;;;;;21.23;67.59;98584.89;25061;1316;3053797;-67
2022/06/24 07:07:37;;;;;;;15.60;8.50;;;;;;;21.37;67.11;98583.38;25087;1316;3026258;-66
2022/06/24 07:10:09;;;;;;;12.50;8.60;;;;;;;21.28;67.39;98580.04;25017;1318;3054643;-64
2022/06/24 07:12:40;;;;;;;13.70;9.50;;;;;;;21.30;67.39;98580.15;25118;1316;3026534;-65
2022/06/24 07:15:14;;;;;;;14.40;10.20;;;;;;;21.33;67.67;98582.98;25084;1316;3027098;-65
2022/06/24 07:17:43;;;;;;;14.60;10.00;;;;;;;21.34;67.53;98584.31;25113;1316;3050001;-67
2022/06/24 07:20:12;;;;;;;20.70;11.60;;;;;;;21.37;66.93;98586.91;25045;1318;3026625;-64
2022/06/24 07:22:41;;;;;;;19.40;12.90;;;;;;;21.45;66.90;98597.52;24999;1319;3069463;-67
2022/06/24 07:25:10;;;;;;;13.80;9.70;;;;;;;21.39;67.16;98599.69;25086;1316;3027273;-67
2022/06/24 07:27:39;;;;;;;20.90;11.20;;;;;;;21.94;65.71;98604.77;25061;1318;3053051;-69
2022/06/24 07:30:09;;;;;;;21.40;12.90;;;;;;;22.26;63.95;98606.48;25057;1317;3026852;-66
2022/06/24 07:32:37;;;;;;;24.30;14.40;;;;;;;22.32;63.47;98606.39;25118;1318;3050901;-66
2022/06/24 07:35:07;;;;;;;27.00;15.10;;;;;;;22.24;63.42;98605.88;25002;1317;3026401;-68
2022/06/24 07:37:36;;;;;;;22.60;14.90;;;;;;;22.17;63.72;98610.46;25075;1318;3049470;-63
2022/06/24 07:40:06;;;;;;;22.30;14.90;;;;;;;22.03;64.40;98608.66;25143;1315;3026783;-65
2022/06/24 07:42:36;;;;;;;20.90;13.60;;;;;;;22.03;64.38;98606.66;25176;1315;3058856;-62
2022/06/24 07:45:06;;;;;;;19.60;12.70;;;;;;;21.97;64.44;98604.94;25018;1315;3026940;-61
2022/06/24 07:47:35;;;;;;;17.40;11.20;;;;;;;21.87;64.39;98604.85;25071;1315;3027378;-68
2022/06/24 07:50:04;;;;;;;14.40;10.70;;;;;;;21.75;64.26;98606.65;25096;1316;3026821;-61
2022/06/24 07:52:34;;;;;;;18.30;11.00;;;;;;;21.69;64.69;98604.20;25132;1316;3053078;-60
2022/06/24 07:57:51;;;;;;;18.10;9.80;;;;;;;21.81;64.17;98600.09;25033;1315;3059382;-62
2022/06/24 08:00:20;;;;;;;15.50;9.80;;;;;;;21.83;63.85;98596.20;25012;1317;3026364;-62
2022/06/24 08:02:49;;;;;;;11.60;9.20;;;;;;;21.80;63.80;98597.52;25031;1315;3054676;-62
2022/06/24 08:05:18;;;;;;;17.30;11.70;;;;;;;21.75;64.24;98593.77;25051;1315;3026959;-61
2022/06/24 08:07:47;;;;;;;14.10;8.20;;;;;;;21.83;64.19;98587.11;25003;1316;3053898;-61
2022/06/24 08:10:17;;;;;;;16.50;9.00;;;;;;;22.49;62.84;98582.83;25036;1318;3026855;-60
2022/06/24 08:12:47;;;;;;;18.50;10.30;;;;;;;23.11;60.86;98572.94;24984;1315;3051279;-61
2022/06/24 08:15:18;;;;;;;15.10;9.20;;;;;;;23.32;60.30;98568.02;25046;1315;3028805;-60
2022/06/24 08:17:49;;;;;;;15.30;10.30;;;;;;;23.54;59.69;98570.90;24962;1315;3026487;-63
2022/06/24 08:20:18;;;;;;;18.80;10.20;;;;;;;23.58;59.04;98567.16;25051;1315;3027141;-62
2022/06/24 08:22:47;;;;;;;13.30;10.10;;;;;;;23.47;59.02;98560.55;25068;1316;3054692;-62
2022/06/24 08:25:19;;;;;;;12.00;9.70;;;;;;;23.36;58.51;98557.75;25007;1315;3027340;-64
2022/06/24 08:27:51;;;;;;;16.80;10.60;;;;;;;23.33;58.57;98557.81;25021;1316;3028582;-63
2022/06/24 08:30:20;;;;;;;15.30;11.00;;;;;;;23.26;58.77;98561.27;25033;1315;3028873;-61
2022/06/24 08:32:49;;;;;;;17.10;12.10;;;;;;;23.14;59.38;98565.60;25029;1316;3026399;-60
2022/06/24 08:35:18;;;;;;;15.50;10.50;;;;;;;23.09;59.28;98569.73;25031;1316;3058126;-65
2022/06/24 08:37:48;;;;;;;18.10;9.80;;;;;;;23.06;59.79;98571.29;24990;1316;3026452;-62
2022/06/24 08:40:17;;;;;;;14.60;10.50;;;;;;;23.03;59.58;98572.11;25008;1315;3026662;-63
2022/06/24 08:42:57;;;;;;;15.80;9.30;;;;;;;22.97;59.97;98572.92;24974;1316;3056940;-61
2022/06/24 08:45:26;;;;;;;15.20;9.00;;;;;;;22.91;60.44;98571.73;25067;1315;3051086;-61
2022/06/24 08:47:56;;;;;;;14.90;8.90;;;;;;;22.90;60.27;98568.96;25056;1315;3026472;-61
2022/06/24 08:50:25;;;;;;;14.80;9.80;;;;;;;22.98;59.75;98566.91;25041;1315;3026723;-61
2022/06/24 08:52:55;;;;;;;17.90;10.10;;;;;;;23.08;59.10;98565.83;24966;1315;3049124;-62
2022/06/24 08:55:24;;;;;;;18.10;10.20;;;;;;;23.09;58.60;98559.91;25027;1315;3027108;-62
2022/06/24 08:57:53;;;;;;;11.40;9.00;;;;;;;23.27;58.10;98550.52;25083;1316;3026643;-61
2022/06/24 09:00:23;;;;;;;16.50;9.60;;;;;;;23.17;58.45;98545.55;24997;1316;3026556;-62
2022/06/24 09:02:52;;;;;;;19.30;9.70;;;;;;;23.19;58.41;98538.94;25145;1315;3026154;-62
2022/06/24 09:05:21;;;;;;;13.00;8.30;;;;;;;23.29;58.41;98531.23;25022;1315;3050422;-60
2022/06/24 09:07:50;;;;;;;17.10;9.10;;;;;;;23.42;57.39;98525.94;25117;1316;3026563;-60
2022/06/24 09:10:19;;;;;;;17.60;9.30;;;;;;;23.66;56.89;98521.08;25015;1318;3026850;-61
2022/06/24 09:12:49;;;;;;;13.20;10.00;;;;;;;23.88;55.91;98521.63;24950;1315;3026540;-62
2022/06/24 09:15:19;;;;;;;14.20;8.60;;;;;;;24.02;55.22;98519.33;24998;1315;3027075;-62
2022/06/24 09:17:49;;;;;;;15.10;9.90;;;;;;;24.16;54.37;98517.48;25109;1315;3026340;-68
2022/06/24 09:20:19;;;;;;;18.10;10.00;;;;;;;24.35;53.57;98514.55;25044;1316;3026653;-61
2022/06/24 09:22:49;;;;;;;16.70;11.10;;;;;;;24.30;52.62;98518.05;25088;1316;3051567;-62
2022/06/24 09:25:18;;;;;;;15.90;9.20;;;;;;;24.25;52.18;98519.92;25120;1316;3027061;-62
2022/06/24 09:27:47;;;;;;;17.30;10.60;;;;;;;24.35;52.52;98518.82;24986;1316;3027123;-62
2022/06/24 09:30:16;;;;;;;17.10;10.10;;;;;;;24.34;52.74;98523.37;25105;1315;3026381;-63
2022/06/24 09:32:52;;;;;;;13.90;7.60;;;;;;;24.34;51.72;98523.45;25029;1315;3026937;-59
2022/06/24 09:35:22;;;;;;;12.50;8.50;;;;;;;24.39;51.48;98523.45;25041;1315;3052179;-63
2022/06/24 09:37:51;;;;;;;15.20;8.90;;;;;;;24.41;52.05;98520.69;25039;1316;3026348;-65
2022/06/24 09:40:20;;;;;;;17.70;9.00;;;;;;;24.44;52.23;98520.70;25112;1315;3026094;-62
2022/06/24 09:43:00;;;;;;;18.40;7.90;;;;;;;24.50;52.54;98533.11;25002;1316;3051732;-62
2022/06/24 09:45:52;;;;;;;19.00;8.90;;;;;;;24.66;52.53;98537.66;25051;1315;3053131;-59
2022/06/24 09:48:30;;;;;;;13.30;8.80;;;;;;;24.79;52.05;98543.05;24930;1316;3051980;-61
2022/06/24 09:51:06;;;;;;;18.20;9.30;;;;;;;24.75;51.89;98548.60;25045;1316;3071270;-61
2022/06/24 09:53:37;;;;;;;14.80;10.70;;;;;;;24.55;51.96;98549.48;25096;1315;3049494;-61
2022/06/24 09:56:08;;;;;;;19.20;10.00;;;;;;;24.52;52.40;98551.11;25092;1316;3026376;-59
2022/06/24 09:58:38;;;;;;;16.10;9.70;;;;;;;24.51;52.87;98546.30;25049;1315;3026908;-63
2022/06/24 10:01:07;;;;;;;17.60;10.00;;;;;;;24.49;53.09;98551.05;25054;1315;3027022;-61
2022/06/24 10:03:40;;;;;;;17.10;9.40;;;;;;;24.56;53.10;98545.77;25055;1316;3026936;-62
2022/06/24 10:06:09;;;;;;;15.00;9.60;;;;;;;24.66;52.87;98541.73;25041;1316;3026365;-60
2022/06/24 10:08:38;;;;;;;18.20;8.90;;;;;;;24.66;53.12;98541.17;25055;1315;3058381;-61
2022/06/24 10:11:09;;;;;;;11.10;7.40;;;;;;;24.77;52.59;98542.98;24966;1318;3026551;-60
2022/06/24 10:13:38;;;;;;;11.90;7.30;;;;;;;24.77;52.70;98538.43;25054;1316;3052370;-61
2022/06/24 10:16:07;;;;;;;14.60;7.60;;;;;;;24.81;52.59;98530.08;24975;1315;3027716;-60
2022/06/24 10:18:39;;;;;;;14.40;7.30;;;;;;;24.60;52.82;98539.95;25083;1315;3053527;-62
2022/06/24 10:21:09;;;;;;;12.40;8.00;;;;;;;24.25;53.73;98541.98;25065;1315;3026713;-61
2022/06/24 10:23:48;;;;;;;13.70;6.80;;;;;;;24.10;54.44;98542.83;25052;1319;3026839;-61
2022/06/24 10:26:31;;;;;;;13.40;7.30;;;;;;;24.01;55.01;98544.55;25041;1316;3052014;-62
2022/06/24 10:29:03;;;;;;;11.80;6.40;;;;;;;23.66;56.44;98550.38;25024;1315;3052695;-63
2022/06/24 10:34:29;;;;;;;4.90;2.80;;;;;;;22.79;50.67;98548.20;25108;1315;3071398;-61
2022/06/24 10:36:59;;;;;;;3.90;3.10;;;;;;;22.47;52.71;98543.65;25101;1315;3049352;-61
2022/06/24 10:39:30;;;;;;;6.50;2.80;;;;;;;22.41;53.43;98539.36;25058;1316;3026893;-66
2022/06/24 10:42:04;;;;;;;5.90;3.00;;;;;;;22.50;52.80;98545.98;25004;1316;3026612;-63
2022/06/24 10:44:36;;;;;;;6.30;3.00;;;;;;;22.49;53.01;98547.76;25034;1317;3055862;-60
2022/06/24 10:47:05;;;;;;;5.00;2.60;;;;;;;22.57;52.05;98540.40;25003;1318;3026764;-62
2022/06/24 10:49:54;;;;;;;5.00;2.30;;;;;;;22.64;51.31;98547.06;25059;1316;3026754;-61
2022/06/24 10:52:55;;;;;;;5.80;2.70;;;;;;;22.51;51.43;98548.17;25006;1316;3058709;-62
2022/06/24 10:55:29;;;;;;;6.50;2.80;;;;;;;22.37;52.27;98546.31;25050;1315;3050940;-62
2022/06/24 10:57:59;;;;;;;5.40;3.50;;;;;;;22.30;54.13;98547.44;25041;1315;3026803;-63
2022/06/24 11:00:29;;;;;;;10.20;4.50;;;;;;;22.20;56.17;98554.30;25114;1315;3026799;-64
2022/06/24 11:03:12;;;;;;;8.80;5.00;;;;;;;22.16;57.73;98557.70;25053;1315;3027610;-63
2022/06/24 11:05:42;;;;;;;8.60;4.90;;;;;;;21.84;60.34;98565.70;25050;1315;3049352;-61
2022/06/24 11:08:15;;;;;;;9.80;5.20;;;;;;;22.03;60.19;98573.86;25042;1316;3026599;-62
2022/06/24 11:10:47;;;;;;;13.20;5.50;;;;;;;22.07;60.89;98580.85;25029;1315;3054037;-61
2022/06/24 11:13:18;;;;;;;11.90;5.90;;;;;;;22.10;60.57;98579.58;25120;1316;3026517;-65
2022/06/24 11:15:52;;;;;;;7.40;5.80;;;;;;;22.07;60.85;98583.66;25039;1316;3026838;-63
2022/06/24 11:18:32;;;;;;;10.60;6.80;;;;;;;22.14;61.19;98590.56;25029;1315;3051952;-63
2022/06/24 11:21:02;;;;;;;11.30;7.80;;;;;;;22.02;63.11;98589.65;25050;1316;3050891;-63
2022/06/24 11:23:32;;;;;;;11.90;7.10;;;;;;;21.90;64.08;98587.70;25107;1315;3026040;-64
2022/06/24 11:26:15;;;;;;;13.20;7.20;;;;;;;21.63;65.52;98592.46;25202;1316;3026913;-61
2022/06/24 11:28:51;;;;;;;9.90;7.70;;;;;;;21.56;65.73;98587.55;25048;1315;3053592;-62
2022/06/24 11:31:27;;;;;;;10.60;7.50;;;;;;;21.59;65.51;98580.74;25071;1316;3052826;-64
2022/06/24 11:34:06;;;;;;;9.40;6.60;;;;;;;21.40;64.85;98584.57;25103;1316;3055926;-62
2022/06/24 11:36:36;;;;;;;9.60;7.30;;;;;;;21.51;64.68;98575.89;25069;1315;3049833;-63
2022/06/24 11:39:06;;;;;;;11.60;6.30;;;;;;;21.34;64.00;98565.17;25194;1316;3026840;-62
2022/06/24 11:41:39;;;;;;;9.60;5.30;;;;;;;21.48;63.64;98567.48;25006;1316;3026828;-62
2022/06/24 11:44:07;;;;;;;7.30;6.30;;;;;;;21.49;63.08;98575.56;24987;1315;3027079;-63